Time;durP1;ratioP1;P1;durP2;ratioP2;P2;SDS_P1;SDS_P2;PMS_P1;PMS_P2;Temp;Humidity;BMP_temperature;BMP_pressure;BME280_temperature;BME280_humidity;BME280_pressure;Samples;Min_cycle;Max_cycle;Signal;HPM_P1;HPM_P2
2022/09/20 00:00:49;;;;;;;10.98;1.60;;;12.50;99.90;;;;;;4899015;29;20120;-72
2022/09/20 00:03:16;;;;;;;7.82;1.60;;;12.50;99.90;;;;;;4898880;29;20044;-72
2022/09/20 00:05:45;;;;;;;9.50;1.63;;;12.50;99.90;;;;;;4898894;29;20047;-72
2022/09/20 00:08:13;;;;;;;8.70;2.10;;;12.50;99.90;;;;;;4898577;29;20625;-73
2022/09/20 00:10:41;;;;;;;7.25;1.98;;;12.50;99.90;;;;;;4899293;29;20439;-72
2022/09/20 00:13:08;;;;;;;11.60;2.20;;;12.50;99.90;;;;;;4898858;29;20060;-73
2022/09/20 00:15:42;;;;;;;13.98;2.50;;;12.50;99.90;;;;;;4898749;29;20073;-73
2022/09/20 00:18:09;;;;;;;14.30;1.92;;;12.50;99.90;;;;;;4898568;29;20039;-71
2022/09/20 00:20:35;;;;;;;14.45;2.38;;;12.30;99.90;;;;;;4881891;29;20029;-72
2022/09/20 00:23:00;;;;;;;10.57;1.50;;;12.20;99.90;;;;;;4898497;29;20179;-72
2022/09/20 00:25:26;;;;;;;6.68;1.52;;;12.30;99.90;;;;;;4899236;29;20148;-72
2022/09/20 00:27:52;;;;;;;9.98;1.60;;;12.40;99.90;;;;;;4898379;29;20051;-72
2022/09/20 00:30:17;;;;;;;10.00;1.77;;;12.50;99.90;;;;;;4898364;29;20466;-72
2022/09/20 00:32:43;;;;;;;10.20;2.15;;;12.40;99.90;;;;;;4898244;29;20043;-73
2022/09/20 00:35:11;;;;;;;11.38;1.63;;;12.50;99.90;;;;;;4898296;29;20032;-72
2022/09/20 00:37:41;;;;;;;11.40;1.90;;;12.30;99.90;;;;;;4897811;29;20036;-72
2022/09/20 00:40:11;;;;;;;7.10;1.63;;;12.40;99.90;;;;;;4898461;29;20059;-72
2022/09/20 00:42:37;;;;;;;9.65;1.48;;;12.40;99.90;;;;;;4898128;29;20119;-71
2022/09/20 00:45:04;;;;;;;9.50;1.90;;;12.50;99.90;;;;;;4898008;29;20040;-73
2022/09/20 00:47:43;;;;;;;10.63;2.00;;;12.30;99.90;;;;;;4898064;29;20049;-72
2022/09/20 00:50:17;;;;;;;11.63;1.80;;;12.10;99.90;;;;;;4898002;29;20025;-72
2022/09/20 00:52:47;;;;;;;9.88;1.80;;;12.20;99.90;;;;;;4898464;29;20502;-71
2022/09/20 00:55:14;;;;;;;10.82;1.98;;;12.10;99.90;;;;;;4881278;29;20056;-72
2022/09/20 00:57:42;;;;;;;13.70;1.50;;;11.90;99.90;;;;;;4897815;29;20507;-71
2022/09/20 01:00:10;;;;;;;12.02;2.03;;;12.00;99.90;;;;;;4897873;29;20048;-72
2022/09/20 01:02:40;;;;;;;8.85;2.10;;;12.00;99.90;;;;;;4897863;29;20043;-72
2022/09/20 01:05:08;;;;;;;16.55;1.90;;;12.00;99.90;;;;;;4897859;29;20120;-71
2022/09/20 01:07:34;;;;;;;;;;;12.00;99.90;;;;;;4898422;29;20025;-71
2022/09/20 01:10:00;;;;;;;7.70;2.05;;;12.00;99.90;;;;;;4913189;29;19930;-72
2022/09/20 01:12:31;;;;;;;10.60;1.90;;;12.00;99.90;;;;;;4916500;29;20039;-72
2022/09/20 01:14:57;;;;;;;8.43;2.03;;;12.00;99.90;;;;;;4916494;29;20143;-72
2022/09/20 01:17:26;;;;;;;11.38;1.70;;;12.00;99.90;;;;;;4916463;29;20478;-73
2022/09/20 01:20:12;;;;;;;9.77;1.55;;;12.10;99.90;;;;;;4916376;29;20044;-73
2022/09/20 01:23:00;;;;;;;16.25;1.45;;;12.10;99.90;;;;;;4916759;29;20020;-72
2022/09/20 01:25:51;;;;;;;10.93;1.83;;;12.00;99.90;;;;;;4916292;29;20048;-71
2022/09/20 01:28:17;;;;;;;13.57;1.65;;;12.00;99.90;;;;;;4898685;29;20036;-72
2022/09/20 01:30:45;;;;;;;58.85;29.63;;;11.90;99.90;;;;;;4916147;29;20040;-72
2022/09/20 01:33:19;;;;;;;23.30;10.75;;;12.00;99.90;;;;;;4916301;29;20043;-73
2022/09/20 01:35:49;;;;;;;11.07;2.17;;;12.00;99.90;;;;;;4923292;28;20126;-72
2022/09/20 01:38:26;;;;;;;11.15;1.58;;;11.90;99.90;;;;;;4934034;28;20040;-73
2022/09/20 01:40:55;;;;;;;9.52;1.70;;;11.80;99.90;;;;;;4933927;28;20023;-71
2022/09/20 01:43:33;;;;;;;8.02;1.42;;;11.90;99.90;;;;;;4935372;29;20019;-72
2022/09/20 01:46:20;;;;;;;6.32;1.40;;;11.80;99.90;;;;;;4934850;28;20030;-72
2022/09/20 01:48:49;;;;;;;14.07;1.70;;;11.80;99.90;;;;;;4933730;29;20035;-71
2022/09/20 01:51:40;;;;;;;6.75;1.88;;;11.80;99.90;;;;;;4935029;28;20047;-73
2022/09/20 01:54:17;;;;;;;9.70;1.77;;;11.70;99.90;;;;;;4934885;28;20036;-72
2022/09/20 01:56:58;;;;;;;9.52;2.28;;;11.70;99.90;;;;;;4934569;28;20370;-71
2022/09/20 01:59:52;;;;;;;9.32;1.63;;;11.70;99.90;;;;;;4934643;28;20063;-72
2022/09/20 02:02:49;;;;;;;11.35;2.47;;;11.70;99.90;;;;;;4934739;28;20110;-72
2022/09/20 02:05:50;;;;;;;13.60;2.22;;;11.70;99.90;;;;;;4934668;28;20465;-72
2022/09/20 02:08:43;;;;;;;13.98;2.17;;;11.90;99.90;;;;;;4912120;28;20486;-71
2022/09/20 02:11:15;;;;;;;10.70;1.58;;;11.90;99.90;;;;;;4915510;29;20036;-71
2022/09/20 02:14:05;;;;;;;10.63;1.40;;;11.80;99.90;;;;;;4916446;29;20060;-72
2022/09/20 02:16:43;;;;;;;13.30;1.73;;;11.80;99.90;;;;;;4934587;29;20126;-73
2022/09/20 02:19:23;;;;;;;;;;;11.80;99.90;;;;;;4934771;28;20036;-72
2022/09/20 02:22:15;;;;;;;9.18;1.80;;;11.80;99.90;;;;;;4934303;28;19923;-72
2022/09/20 02:25:19;;;;;;;11.85;1.88;;;11.80;99.90;;;;;;4917767;29;20039;-73
2022/09/20 02:27:52;;;;;;;6.85;1.58;;;11.70;99.90;;;;;;4934423;29;20050;-73
2022/09/20 02:30:37;;;;;;;16.77;2.25;;;11.80;99.90;;;;;;4934079;28;20449;-72
2022/09/20 02:33:38;;;;;;;8.93;1.55;;;11.70;99.90;;;;;;4917490;29;20028;-73
2022/09/20 02:36:10;;;;;;;13.48;1.73;;;11.60;99.90;;;;;;4917284;29;20051;-72
2022/09/20 02:38:41;;;;;;;10.73;2.58;;;11.60;99.90;;;;;;4934183;28;20138;-71
2022/09/20 02:41:38;;;;;;;11.07;2.35;;;11.70;99.90;;;;;;4917393;28;20046;-72
2022/09/20 02:44:19;;;;;;;11.07;1.98;;;11.70;99.90;;;;;;4934021;28;20461;-73
2022/09/20 02:47:02;;;;;;;13.27;1.92;;;11.80;99.90;;;;;;4934406;29;20565;-71
2022/09/20 02:49:46;;;;;;;19.30;2.42;;;11.90;99.90;;;;;;4917034;29;20035;-72
2022/09/20 02:52:23;;;;;;;11.38;1.70;;;11.80;99.90;;;;;;4915581;29;20028;-73
2022/09/20 02:55:09;;;;;;;12.95;2.08;;;11.90;99.90;;;;;;4910151;29;20056;-73
2022/09/20 02:58:01;;;;;;;12.55;3.22;;;11.80;99.90;;;;;;4914816;29;20063;-73
2022/09/20 03:00:37;;;;;;;10.05;1.58;;;11.80;99.90;;;;;;4914699;29;20036;-73
2022/09/20 03:03:34;;;;;;;11.77;2.22;;;11.90;99.90;;;;;;4914792;29;20066;-72
2022/09/20 03:06:05;;;;;;;8.50;1.83;;;11.90;99.90;;;;;;4914548;29;20127;-72
2022/09/20 03:08:43;;;;;;;10.60;2.28;;;11.90;99.90;;;;;;4921568;29;20174;-72
2022/09/20 03:11:30;;;;;;;12.57;3.15;;;12.00;99.90;;;;;;4933693;29;20584;-73
2022/09/20 03:14:30;;;;;;;4.38;1.50;;;12.00;99.90;;;;;;4933654;29;20031;-72
2022/09/20 03:17:14;;;;;;;9.00;2.22;;;12.00;99.90;;;;;;4933474;29;20099;-72
2022/09/20 03:20:19;;;;;;;10.27;2.25;;;12.00;99.90;;;;;;4916936;29;20059;-72
2022/09/20 03:22:56;;;;;;;8.98;2.40;;;12.00;99.90;;;;;;4903824;29;20039;-72
2022/09/20 03:25:43;;;;;;;14.45;2.15;;;12.00;99.90;;;;;;4933915;29;20452;-72
2022/09/20 03:28:34;;;;;;;8.02;2.65;;;12.00;99.90;;;;;;4933322;28;20032;-73
2022/09/20 03:31:06;;;;;;;11.43;2.22;;;11.80;99.90;;;;;;4915829;29;20028;-72
2022/09/20 03:34:10;;;;;;;11.88;2.63;;;11.90;99.90;;;;;;4933389;29;20036;-74
2022/09/20 03:37:14;;;;;;;12.02;2.47;;;12.00;99.90;;;;;;4912303;29;20055;-72
2022/09/20 03:40:01;;;;;;;12.13;2.50;;;11.90;99.90;;;;;;4916467;29;20039;-72
2022/09/20 03:42:30;;;;;;;7.75;2.08;;;12.00;99.90;;;;;;4916139;29;20035;-73
2022/09/20 03:45:14;;;;;;;10.10;2.30;;;12.10;99.90;;;;;;4916877;29;20436;-72
2022/09/20 03:47:51;;;;;;;16.00;3.33;;;12.00;99.90;;;;;;4933695;29;20043;-73
2022/09/20 03:50:31;;;;;;;9.45;2.65;;;12.00;99.90;;;;;;4933297;29;20110;-72
2022/09/20 03:53:12;;;;;;;11.10;2.80;;;12.00;99.90;;;;;;4933207;29;20417;-72
2022/09/20 03:55:49;;;;;;;14.27;4.18;;;12.00;99.90;;;;;;4933656;29;20043;-73
2022/09/20 03:58:38;;;;;;;13.23;3.75;;;12.00;99.90;;;;;;4933287;29;20524;-73
2022/09/20 04:01:19;;;;;;;21.45;3.75;;;12.10;99.90;;;;;;4933320;29;20075;-72
2022/09/20 04:03:54;;;;;;;9.57;3.30;;;12.10;99.90;;;;;;4932899;29;20032;-72
2022/09/20 04:06:58;;;;;;;12.13;3.85;;;12.10;99.90;;;;;;4933168;29;20114;-72
2022/09/20 04:09:57;;;;;;;14.88;3.63;;;12.10;99.90;;;;;;4932790;29;20040;-71
2022/09/20 04:12:46;;;;;;;20.02;4.00;;;12.10;99.90;;;;;;4933223;29;20433;-72
2022/09/20 04:15:19;;;;;;;14.13;3.42;;;12.10;99.90;;;;;;4915977;29;20031;-72
2022/09/20 04:18:22;;;;;;;14.85;4.35;;;12.10;99.90;;;;;;4933092;29;20422;-72
2022/09/20 04:21:01;;;;;;;12.40;3.55;;;12.10;99.90;;;;;;4915885;29;20039;-73
2022/09/20 04:23:49;;;;;;;7.10;2.90;;;12.10;99.90;;;;;;4932730;29;20036;-72
2022/09/20 04:26:22;;;;;;;10.25;3.47;;;12.20;99.90;;;;;;4932723;29;20023;-71
2022/09/20 04:28:58;;;;;;;12.18;3.28;;;12.10;99.90;;;;;;4933205;29;20035;-72
2022/09/20 04:31:34;;;;;;;12.05;3.38;;;12.10;99.90;;;;;;4933152;29;20367;-73
2022/09/20 04:34:03;;;;;;;11.40;3.70;;;12.30;99.90;;;;;;4933177;29;20031;-73
2022/09/20 04:36:49;;;;;;;6.95;3.15;;;12.20;99.90;;;;;;4932869;29;20135;-73
2022/09/20 04:39:32;;;;;;;8.35;3.55;;;12.30;99.90;;;;;;4915913;29;20450;-73
2022/09/20 04:42:23;;;;;;;16.45;3.35;;;12.40;99.90;;;;;;4933204;29;20036;-73
2022/09/20 04:45:06;;;;;;;13.40;4.43;;;12.40;99.90;;;;;;4935869;29;20032;-71
2022/09/20 04:47:52;;;;;;;15.75;4.43;;;12.40;99.90;;;;;;4935845;29;20366;-72
2022/09/20 04:50:39;;;;;;;12.45;4.78;;;12.20;99.90;;;;;;4935924;29;20027;-73
2022/09/20 04:53:36;;;;;;;15.32;5.50;;;12.00;99.90;;;;;;4935934;29;20114;-72
2022/09/20 04:56:18;;;;;;;18.00;4.15;;;12.20;99.90;;;;;;4918979;28;20095;-72
2022/09/20 04:59:06;;;;;;;16.95;5.72;;;12.30;99.90;;;;;;4936281;29;20028;-73
2022/09/20 05:01:51;;;;;;;;;;;12.40;99.90;;;;;;4936330;29;20047;-72
2022/09/20 05:04:25;;;;;;;11.20;4.15;;;12.40;99.90;;;;;;4935896;29;19963;-72
2022/09/20 05:07:19;;;;;;;9.48;4.40;;;12.20;99.90;;;;;;4919163;29;20032;-73
2022/09/20 05:10:20;;;;;;;10.95;4.47;;;12.30;99.90;;;;;;4935416;29;20378;-73
2022/09/20 05:13:20;;;;;;;13.35;4.70;;;12.40;99.90;;;;;;4888649;29;20036;-73
2022/09/20 05:16:27;;;;;;;14.68;4.50;;;12.40;99.90;;;;;;4913972;29;20036;-73
2022/09/20 05:19:20;;;;;;;16.48;5.53;;;12.50;99.90;;;;;;4935365;29;20032;-72
2022/09/20 05:22:24;;;;;;;14.35;4.88;;;12.50;99.90;;;;;;4935216;29;20040;-73
2022/09/20 05:24:58;;;;;;;12.75;4.95;;;12.40;99.90;;;;;;4902980;29;20087;-73
2022/09/20 05:28:00;;;;;;;10.63;4.38;;;12.40;99.90;;;;;;4935322;29;20111;-72
2022/09/20 05:30:49;;;;;;;16.95;5.22;;;12.40;99.90;;;;;;4935133;29;20028;-72
2022/09/20 05:33:43;;;;;;;16.38;5.53;;;12.50;99.90;;;;;;4935246;29;20488;-72
2022/09/20 05:36:16;;;;;;;16.95;5.88;;;12.50;99.90;;;;;;4935098;29;20099;-72
2022/09/20 05:38:53;;;;;;;22.60;7.00;;;12.40;99.90;;;;;;4935042;29;20040;-73
2022/09/20 05:41:37;;;;;;;18.23;5.38;;;12.40;99.90;;;;;;4918097;29;20339;-73
2022/09/20 05:44:54;;;;;;;24.10;6.03;;;12.50;99.90;;;;;;4935018;29;20162;-73
2022/09/20 05:47:34;;;;;;;11.77;4.65;;;12.50;99.90;;;;;;4910097;29;20097;-73
2022/09/20 05:50:28;;;;;;;16.77;4.15;;;12.60;99.90;;;;;;4917919;29;20465;-72
2022/09/20 05:53:23;;;;;;;15.48;4.60;;;12.50;99.90;;;;;;4905930;29;20028;-73
2022/09/20 05:56:18;;;;;;;15.82;4.63;;;12.50;99.90;;;;;;4916129;29;20079;-72
2022/09/20 05:59:02;;;;;;;20.65;4.88;;;12.50;99.90;;;;;;4915846;29;20119;-72
2022/09/20 06:01:31;;;;;;;16.60;4.78;;;12.50;99.90;;;;;;4914772;29;20119;-73
2022/09/20 06:04:39;;;;;;;17.58;4.43;;;12.50;99.90;;;;;;4915580;29;20142;-74
2022/09/20 06:07:45;;;;;;;15.13;4.05;;;12.50;99.90;;;;;;4888569;29;20040;-71
2022/09/20 06:10:41;;;;;;;17.58;5.43;;;12.50;99.90;;;;;;4894011;29;20211;-71
2022/09/20 06:13:58;;;;;;;15.15;4.80;;;12.50;99.90;;;;;;4917572;29;20071;-76
2022/09/20 06:16:56;;;;;;;14.90;4.88;;;12.30;99.90;;;;;;4858637;29;20128;-72
2022/09/20 06:19:38;;;;;;;12.15;4.85;;;12.50;99.90;;;;;;4848033;29;20057;-72
2022/09/20 06:22:11;;;;;;;16.98;4.32;;;12.50;99.90;;;;;;4923142;29;20447;-74
2022/09/20 06:25:00;;;;;;;13.82;4.57;;;12.60;99.90;;;;;;4934732;29;20047;-76
2022/09/20 06:27:33;;;;;;;14.38;4.75;;;12.60;99.90;;;;;;4917171;29;20035;-72
2022/09/20 06:30:04;;;;;;;15.43;7.40;;;12.60;99.90;;;;;;4917214;29;20276;-73
2022/09/20 06:32:30;;;;;;;14.38;4.55;;;12.70;99.90;;;;;;4924437;29;20123;-75
2022/09/20 06:34:59;;;;;;;13.75;4.88;;;12.70;99.90;;;;;;4914598;29;20171;-75
2022/09/20 06:43:24;;;;;;;20.88;4.57;;;12.80;99.90;;;;;;4915907;29;20180;-74
2022/09/20 06:45:49;;;;;;;14.93;4.82;;;12.80;99.90;;;;;;4916007;29;20470;-73
2022/09/20 06:48:15;;;;;;;15.38;4.82;;;12.80;99.90;;;;;;4914191;29;20040;-76
2022/09/20 06:50:44;;;;;;;12.50;4.22;;;12.90;99.90;;;;;;4915840;29;20032;-76
2022/09/20 06:53:26;;;;;;;8.73;3.97;;;12.80;99.90;;;;;;4914725;29;20512;-75
2022/09/20 06:55:52;;;;;;;15.30;4.30;;;13.00;99.90;;;;;;4915677;28;20099;-76
2022/09/20 06:58:18;;;;;;;10.90;3.33;;;13.00;99.90;;;;;;4916354;29;20024;-77
2022/09/20 07:00:44;;;;;;;15.30;3.75;;;13.10;99.90;;;;;;4915488;29;20036;-77
2022/09/20 07:03:11;;;;;;;9.35;3.50;;;13.00;99.90;;;;;;4915245;29;20036;-75
2022/09/20 07:05:37;;;;;;;17.15;3.75;;;13.10;99.90;;;;;;4914831;29;20450;-73
2022/09/20 07:08:03;;;;;;;12.68;3.20;;;13.10;99.90;;;;;;4910919;29;20044;-76
2022/09/20 07:10:30;;;;;;;10.40;3.33;;;13.00;99.90;;;;;;4897157;29;20024;-76
2022/09/20 07:13:00;;;;;;;16.73;3.95;;;13.20;99.90;;;;;;4896885;29;20115;-75
2022/09/20 07:15:27;;;;;;;13.27;4.13;;;13.10;99.90;;;;;;4896293;29;20032;-74
2022/09/20 07:17:54;;;;;;;12.65;3.40;;;13.10;99.90;;;;;;4895251;29;20036;-75
2022/09/20 07:20:20;;;;;;;12.95;3.17;;;13.30;99.90;;;;;;4900334;29;20029;-75
2022/09/20 07:22:47;;;;;;;13.90;3.38;;;13.40;99.90;;;;;;4898117;29;20110;-75
2022/09/20 07:25:13;;;;;;;8.73;3.17;;;13.50;99.90;;;;;;4896274;29;20127;-76
2022/09/20 07:27:39;;;;;;;14.38;3.25;;;13.60;99.90;;;;;;4896360;29;20124;-73
2022/09/20 07:30:06;;;;;;;16.85;4.38;;;13.60;99.90;;;;;;4894456;29;20092;-74
2022/09/20 07:32:31;;;;;;;13.75;2.50;;;13.60;99.90;;;;;;4894611;29;20372;-72
2022/09/20 07:34:58;;;;;;;9.15;3.40;;;13.50;99.90;;;;;;4895785;29;20039;-72
2022/09/20 07:37:23;;;;;;;10.27;3.08;;;13.50;99.90;;;;;;4896466;29;20040;-74
2022/09/20 07:39:49;;;;;;;10.85;3.25;;;13.70;99.90;;;;;;4895850;29;20120;-73
2022/09/20 07:42:15;;;;;;;10.82;2.90;;;13.90;99.90;;;;;;4896083;29;20132;-72
2022/09/20 07:44:43;;;;;;;6.93;2.58;;;13.90;99.90;;;;;;4894964;29;20096;-73
2022/09/20 07:47:10;;;;;;;14.98;3.45;;;14.00;99.90;;;;;;4895352;29;20416;-71
2022/09/20 07:49:36;;;;;;;9.73;2.70;;;14.00;99.90;;;;;;4895946;29;20036;-72
2022/09/20 07:52:02;;;;;;;9.02;2.78;;;14.10;99.90;;;;;;4895482;29;20135;-70
2022/09/20 07:54:29;;;;;;;8.40;2.40;;;14.10;99.90;;;;;;4895315;29;20127;-74
2022/09/20 07:56:54;;;;;;;10.75;3.03;;;14.00;99.90;;;;;;4895308;29;20037;-74
2022/09/20 07:59:23;;;;;;;8.77;2.53;;;14.10;99.90;;;;;;4892185;29;20112;-74
2022/09/20 08:01:48;;;;;;;15.90;3.13;;;14.20;99.90;;;;;;4896050;29;20415;-72
2022/09/20 08:04:14;;;;;;;16.80;2.35;;;14.00;99.90;;;;;;4875860;29;20511;-71
2022/09/20 08:06:42;;;;;;;6.03;1.73;;;14.20;99.90;;;;;;4890945;29;20052;-71
2022/09/20 08:09:08;;;;;;;7.28;2.22;;;14.20;99.90;;;;;;4907116;29;20048;-72
2022/09/20 08:11:35;;;;;;;11.93;2.42;;;14.20;99.90;;;;;;4897526;29;20036;-72
2022/09/20 08:14:01;;;;;;;11.82;2.35;;;14.30;99.90;;;;;;4914054;29;20032;-73
2022/09/20 08:16:28;;;;;;;13.82;2.70;;;14.30;99.90;;;;;;4916067;29;20359;-74
2022/09/20 08:18:57;;;;;;;15.02;2.60;;;14.30;99.90;;;;;;4917979;29;20036;-72
2022/09/20 08:21:30;;;;;;;6.78;1.98;;;14.40;99.90;;;;;;4901347;29;20467;-72
2022/09/20 08:23:57;;;;;;;8.65;2.15;;;14.70;99.90;;;;;;4917941;29;20048;-73
2022/09/20 08:26:24;;;;;;;8.13;1.70;;;14.80;99.90;;;;;;4917515;29;20282;-75
2022/09/20 08:28:54;;;;;;;8.60;2.05;;;15.10;99.90;;;;;;4917791;29;20517;-74
2022/09/20 08:31:23;;;;;;;7.88;2.05;;;15.20;99.90;;;;;;4916966;29;20099;-75
2022/09/20 08:33:49;;;;;;;7.88;2.00;;;15.30;99.90;;;;;;4913857;29;20028;-73
2022/09/20 08:36:18;;;;;;;6.95;1.83;;;15.20;99.70;;;;;;4909741;29;20044;-74
2022/09/20 08:38:44;;;;;;;8.15;1.88;;;15.10;99.90;;;;;;4917753;29;20047;-81
2022/09/20 08:41:46;;;;;;;10.85;1.90;;;15.00;99.90;;;;;;4917208;29;20454;-75
2022/09/20 08:44:31;;;;;;;11.95;2.15;;;15.10;99.80;;;;;;4917144;29;20384;-73
2022/09/20 08:47:02;;;;;;;10.68;1.80;;;14.80;99.60;;;;;;4917206;29;20327;-74
2022/09/20 08:49:29;;;;;;;11.25;3.08;;;14.90;99.80;;;;;;4917973;29;20016;-73
2022/09/20 08:51:57;;;;;;;10.20;2.50;;;14.70;99.80;;;;;;4916965;29;20032;-76
2022/09/20 08:54:28;;;;;;;8.35;2.25;;;14.90;99.90;;;;;;4900715;29;20135;-75
2022/09/20 08:56:54;;;;;;;12.25;2.13;;;15.00;99.90;;;;;;4912975;29;20052;-79
2022/09/20 08:59:22;;;;;;;9.23;1.70;;;15.10;99.80;;;;;;4901672;29;20370;-73
2022/09/20 09:01:50;;;;;;;14.38;1.83;;;14.90;99.60;;;;;;4900569;29;20084;-72
2022/09/20 09:04:22;;;;;;;11.82;2.20;;;14.80;99.80;;;;;;4916915;29;20059;-73
2022/09/20 09:06:49;;;;;;;12.18;2.85;;;14.50;99.90;;;;;;4916607;29;20036;-72
2022/09/20 09:09:22;;;;;;;10.93;2.35;;;14.50;99.90;;;;;;4916637;29;20070;-73
2022/09/20 09:11:50;;;;;;;8.63;2.55;;;14.50;99.90;;;;;;4916446;29;20310;-72
2022/09/20 09:17:28;;;;;;;10.68;2.58;;;14.60;99.90;;;;;;4904652;29;20525;-71
2022/09/20 09:19:58;;;;;;;12.18;2.88;;;14.70;99.90;;;;;;4916250;29;20024;-72
2022/09/20 09:22:34;;;;;;;12.80;2.58;;;14.70;99.90;;;;;;4915880;29;20535;-72
2022/09/20 09:25:33;;;;;;;9.73;2.53;;;14.80;99.90;;;;;;4916278;29;20044;-72
2022/09/20 09:28:06;;;;;;;10.70;2.80;;;14.90;99.90;;;;;;4898686;29;20029;-74
2022/09/20 09:30:38;;;;;;;8.77;2.28;;;14.70;99.90;;;;;;4916687;29;20040;-73
2022/09/20 09:33:19;;;;;;;12.50;3.08;;;14.70;99.80;;;;;;4916139;29;20377;-74
2022/09/20 09:36:06;;;;;;;7.82;2.50;;;14.70;99.80;;;;;;4915999;29;20241;-72
2022/09/20 09:38:37;;;;;;;10.68;2.75;;;14.80;99.90;;;;;;4916349;29;20036;-72
2022/09/20 09:41:25;;;;;;;7.70;1.83;;;14.90;99.80;;;;;;4914957;29;20063;-71
2022/09/20 09:44:09;;;;;;;12.18;2.92;;;15.00;99.70;;;;;;4916650;29;20031;-72
2022/09/20 09:46:38;;;;;;;8.90;2.83;;;15.10;99.70;;;;;;4916337;29;20407;-76
2022/09/20 09:49:16;;;;;;;10.90;3.65;;;15.40;99.70;;;;;;4899431;29;20029;-72
2022/09/20 09:52:14;;;;;;;9.43;2.65;;;15.60;99.10;;;;;;4916170;29;20024;-75
2022/09/20 09:54:51;;;;;;;8.32;1.95;;;15.90;98.90;;;;;;4915867;29;20032;-73
2022/09/20 09:57:41;;;;;;;8.40;1.90;;;15.80;98.60;;;;;;4899221;29;20115;-73
2022/09/20 10:00:13;;;;;;;7.15;2.10;;;15.60;98.40;;;;;;4915786;29;20438;-73
2022/09/20 10:02:48;;;;;;;9.75;2.00;;;15.70;98.70;;;;;;4915861;29;20043;-73
2022/09/20 10:05:23;;;;;;;9.00;1.80;;;16.00;98.70;;;;;;4915918;29;20036;-75
2022/09/20 10:08:26;;;;;;;5.80;1.83;;;16.10;98.30;;;;;;4915977;29;20043;-74
2022/09/20 10:11:13;;;;;;;9.25;2.35;;;16.30;98.40;;;;;;4915443;29;20107;-73
2022/09/20 10:14:02;;;;;;;9.63;1.90;;;16.60;97.70;;;;;;4914764;29;20028;-72
2022/09/20 10:16:49;;;;;;;8.88;2.00;;;17.00;98.10;;;;;;4915677;29;20040;-74
2022/09/20 10:19:42;;;;;;;5.97;1.58;;;17.50;96.70;;;;;;4896595;29;20044;-77
2022/09/20 10:22:33;;;;;;;11.13;2.67;;;19.10;97.80;;;;;;4896325;29;20060;-75
2022/09/20 10:25:22;;;;;;;4.85;1.17;;;20.10;95.60;;;;;;4895303;29;20127;-73
2022/09/20 10:27:54;;;;;;;3.75;1.20;;;20.70;92.90;;;;;;4896329;29;20028;-74
2022/09/20 10:30:30;;;;;;;7.18;1.42;;;21.50;93.50;;;;;;4896486;29;20039;-73
2022/09/20 10:32:59;;;;;;;7.97;1.65;;;22.70;92.70;;;;;;4896443;29;20055;-74
2022/09/20 10:36:04;;;;;;;8.60;1.42;;;23.20;88.10;;;;;;4895025;29;20383;-74
2022/09/20 10:38:37;;;;;;;4.95;1.50;;;23.60;83.90;;;;;;4896081;29;20493;-74
2022/09/20 10:44:18;;;;;;;7.25;1.27;;;23.80;84.00;;;;;;4896717;29;20043;-80
2022/09/20 10:47:00;;;;;;;7.82;1.63;;;24.10;82.20;;;;;;4895567;29;20021;-76
2022/09/20 10:49:26;;;;;;;3.92;0.90;;;23.70;80.90;;;;;;4895924;29;20040;-73
2022/09/20 10:52:14;;;;;;;6.75;1.00;;;22.90;78.60;;;;;;4910857;29;20123;-73
2022/09/20 10:54:47;;;;;;;6.30;1.20;;;22.30;80.00;;;;;;4901056;29;20479;-74
2022/09/20 10:57:37;;;;;;;4.18;1.00;;;22.30;81.10;;;;;;4896654;29;20044;-75
2022/09/20 11:00:24;;;;;;;4.78;0.93;;;21.10;82.70;;;;;;4895080;29;20148;-78
2022/09/20 11:02:49;;;;;;;5.72;1.30;;;22.70;82.00;;;;;;4896402;29;20447;-75
2022/09/20 11:05:30;;;;;;;5.55;2.15;;;23.90;77.00;;;;;;4896340;29;20040;-74
2022/09/20 11:08:12;;;;;;;7.32;3.35;;;23.80;74.60;;;;;;4895317;29;20035;-77
2022/09/20 11:10:52;;;;;;;3.75;1.25;;;23.70;75.90;;;;;;4897145;29;20032;-76
2022/09/20 11:13:25;;;;;;;4.25;0.93;;;24.10;75.30;;;;;;4915263;29;20123;-77
2022/09/20 11:16:02;;;;;;;5.30;1.27;;;24.00;76.10;;;;;;4913530;29;20036;-74
2022/09/20 11:18:47;;;;;;;6.97;1.80;;;23.20;76.40;;;;;;4914780;29;20541;-73
2022/09/20 11:21:18;;;;;;;7.78;1.45;;;23.50;78.20;;;;;;4913884;29;20359;-75
2022/09/20 11:23:50;;;;;;;6.45;2.45;;;23.30;78.80;;;;;;4914947;29;20420;-74
2022/09/20 11:26:38;;;;;;;8.10;3.50;;;21.90;76.90;;;;;;4898273;29;20234;-74
2022/09/20 11:29:36;;;;;;;9.52;1.67;;;22.00;80.90;;;;;;4914824;29;20028;-74
2022/09/20 11:32:14;;;;;;;8.35;1.48;;;22.10;81.40;;;;;;4914025;29;20407;-73
2022/09/20 11:34:55;;;;;;;7.15;1.38;;;21.70;81.00;;;;;;4915430;29;20043;-75
2022/09/20 11:37:24;;;;;;;6.03;1.02;;;21.40;81.40;;;;;;4915791;29;20051;-73
2022/09/20 11:39:54;;;;;;;3.65;0.98;;;21.20;79.90;;;;;;4898099;29;20028;-75
2022/09/20 11:42:34;;;;;;;8.15;1.20;;;20.80;80.20;;;;;;4915271;29;20029;-75
2022/09/20 11:44:59;;;;;;;6.28;1.75;;;20.50;81.10;;;;;;4914476;29;20043;-74
2022/09/20 11:47:40;;;;;;;6.00;1.45;;;20.40;79.70;;;;;;4915037;29;20390;-75
2022/09/20 11:50:37;;;;;;;8.27;1.55;;;20.20;80.80;;;;;;4915180;29;20032;-76
2022/09/20 11:53:23;;;;;;;8.00;1.42;;;19.90;81.10;;;;;;4918694;29;20474;-75
2022/09/20 11:56:00;;;;;;;4.53;1.38;;;19.80;82.00;;;;;;4919479;29;20040;-75
2022/09/20 11:58:27;;;;;;;9.45;1.25;;;19.80;83.30;;;;;;4899929;29;20037;-75
2022/09/20 12:00:55;;;;;;;7.47;1.40;;;19.60;84.80;;;;;;4899687;29;20049;-74
2022/09/20 12:03:38;;;;;;;4.93;1.17;;;19.40;84.50;;;;;;4899597;29;20033;-75
2022/09/20 12:06:05;;;;;;;8.55;1.42;;;19.40;84.40;;;;;;4899860;29;20045;-75
2022/09/20 12:08:33;;;;;;;;;;;19.40;85.00;;;;;;4907994;29;20036;-76
2022/09/20 12:11:03;;;;;;;;;;;19.40;85.10;;;;;;4919076;29;20010;-74
2022/09/20 12:13:32;;;;;;;4.45;1.33;;;19.20;85.70;;;;;;4919203;29;19918;-74
2022/09/20 12:16:02;;;;;;;8.18;1.30;;;19.20;86.20;;;;;;4918695;29;20086;-74
2022/09/20 12:18:34;;;;;;;6.97;1.50;;;19.10;86.80;;;;;;4918648;29;20111;-78
2022/09/20 12:21:07;;;;;;;3.30;0.90;;;19.10;87.10;;;;;;4933417;29;20028;-75
2022/09/20 12:24:03;;;;;;;3.97;1.02;;;18.90;83.20;;;;;;4919645;29;20369;-76
2022/09/20 12:26:38;;;;;;;7.10;1.17;;;18.90;84.20;;;;;;4917196;29;20542;-76
2022/09/20 12:29:24;;;;;;;6.65;1.40;;;18.80;83.90;;;;;;4918138;29;20036;-77
2022/09/20 12:31:54;;;;;;;10.38;3.22;;;18.70;83.60;;;;;;4919060;29;20020;-76
2022/09/20 12:34:20;;;;;;;7.03;1.30;;;18.40;83.50;;;;;;4918004;29;20047;-75
2022/09/20 12:36:54;;;;;;;7.25;1.20;;;18.20;84.20;;;;;;4918265;29;20040;-75
2022/09/20 12:39:21;;;;;;;8.63;1.40;;;18.20;85.10;;;;;;4918442;29;20032;-76
2022/09/20 12:41:54;;;;;;;7.55;1.85;;;18.30;86.30;;;;;;4917061;29;20095;-73
2022/09/20 12:44:39;;;;;;;5.75;1.20;;;18.00;87.50;;;;;;4916591;29;20043;-74
2022/09/20 12:47:11;;;;;;;5.35;1.25;;;17.80;88.50;;;;;;4917405;29;20034;-74
2022/09/20 12:52:59;;;;;;;2.40;0.90;;;17.70;89.30;;;;;;4917829;29;20062;-72
2022/09/20 12:56:07;;;;;;;4.32;1.17;;;17.60;89.90;;;;;;4916961;29;20051;-76
2022/09/20 12:58:51;;;;;;;3.42;1.00;;;17.70;89.40;;;;;;4911668;29;20060;-77
2022/09/20 13:01:17;;;;;;;4.82;1.10;;;17.90;89.40;;;;;;4916786;29;20407;-76
2022/09/20 13:03:48;;;;;;;2.40;0.90;;;18.00;88.00;;;;;;4916084;29;20463;-80
2022/09/20 13:06:15;;;;;;;3.17;1.08;;;18.10;87.30;;;;;;4917406;29;20036;-73
2022/09/20 13:08:50;;;;;;;6.70;1.15;;;18.10;87.00;;;;;;4908908;29;20395;-74
2022/09/20 13:11:29;;;;;;;4.63;0.80;;;18.30;87.90;;;;;;4898361;29;20052;-75
2022/09/20 13:13:57;;;;;;;3.38;0.80;;;18.20;84.10;;;;;;4898075;29;20131;-75
2022/09/20 13:16:27;;;;;;;3.70;1.15;;;18.50;84.40;;;;;;4897274;29;20115;-72
2022/09/20 13:18:59;;;;;;;6.20;0.98;;;18.30;85.00;;;;;;4898086;29;20028;-75
2022/09/20 13:21:26;;;;;;;11.05;1.10;;;18.40;83.70;;;;;;4898183;29;20096;-76
2022/09/20 13:23:54;;;;;;;5.63;0.70;;;18.40;85.80;;;;;;4897560;29;20055;-74
2022/09/20 13:26:26;;;;;;;9.13;1.33;;;18.40;89.80;;;;;;4897558;29;20040;-74
2022/09/20 13:28:54;;;;;;;9.65;0.90;;;17.90;92.10;;;;;;4880785;29;20056;-74
2022/09/20 13:31:20;;;;;;;;;;;18.00;93.70;;;;;;4898163;29;20504;-74
2022/09/20 13:33:46;;;;;;;4.75;1.10;;;17.90;94.00;;;;;;4897218;29;19978;-75
2022/09/20 13:36:13;;;;;;;8.25;3.60;;;17.70;94.60;;;;;;4897385;29;20352;-75
2022/09/20 13:38:39;;;;;;;4.45;1.10;;;17.80;95.00;;;;;;4896208;29;20029;-74
2022/09/20 13:41:11;;;;;;;6.93;1.40;;;17.70;94.80;;;;;;4897148;29;20570;-73
2022/09/20 13:43:42;;;;;;;4.80;1.63;;;17.60;95.00;;;;;;4881011;29;20063;-73
2022/09/20 13:46:09;;;;;;;7.38;1.23;;;17.10;95.60;;;;;;4880579;29;20043;-72
2022/09/20 13:48:35;;;;;;;3.65;1.20;;;17.00;96.30;;;;;;4897322;29;20036;-73
2022/09/20 13:51:02;;;;;;;5.05;1.50;;;17.00;96.50;;;;;;4896997;29;20041;-73